createdAt,value
2018-12-17T20:54:48.746Z,22.18
2018-12-17T20:57:16.654Z,22.20
2018-12-17T21:00:42.221Z,23.32
2018-12-17T21:03:10.793Z,22.71
2018-12-17T21:06:15.197Z,22.97
2018-12-17T21:08:42.974Z,22.26
2018-12-17T21:11:11.513Z,22.17
2018-12-17T21:13:39.633Z,22.14
2018-12-17T21:16:07.587Z,22.14
2018-12-17T21:18:35.451Z,22.14
2018-12-17T21:21:03.283Z,22.16
2018-12-17T21:23:31.854Z,22.24
2018-12-17T21:26:00.044Z,22.12
2018-12-17T21:28:28.629Z,22.03
2018-12-17T21:30:56.324Z,21.96
2018-12-17T21:33:24.764Z,21.95
2018-12-17T21:35:52.457Z,21.95
2018-12-17T21:38:20.161Z,16.10
2018-12-17T21:40:47.724Z,14.85
2018-12-17T21:43:15.206Z,17.92
2018-12-17T21:45:42.835Z,19.45
2018-12-17T21:48:10.580Z,20.15
2018-12-17T21:50:38.156Z,20.50
2018-12-17T21:53:05.720Z,20.71
2018-12-17T21:55:33.253Z,20.77
2018-12-17T21:58:03.037Z,20.85
2018-12-17T22:00:30.866Z,20.91
2018-12-17T22:02:58.531Z,20.95
2018-12-17T22:05:26.144Z,21.10
2018-12-17T22:07:53.625Z,21.11
2018-12-17T22:10:25.400Z,21.16
2018-12-17T22:12:53.637Z,21.13
2018-12-17T22:15:21.419Z,21.19
2018-12-17T22:17:49.335Z,21.22
2018-12-17T22:20:17.600Z,21.21
2018-12-17T22:22:45.619Z,21.20
2018-12-17T22:25:13.734Z,21.20
2018-12-17T22:27:41.887Z,21.22
2018-12-17T22:30:09.316Z,21.23
2018-12-17T22:32:37.082Z,21.23
2018-12-17T22:35:05.339Z,21.25
2018-12-17T22:37:32.772Z,21.22
2018-12-17T22:40:00.408Z,21.24
2018-12-17T22:42:28.239Z,21.21
2018-12-17T22:44:55.787Z,21.24
2018-12-17T22:47:23.652Z,21.25
2018-12-17T22:49:51.428Z,21.23
2018-12-17T22:52:19.082Z,21.20
2018-12-17T22:54:46.952Z,21.22
2018-12-17T22:57:14.540Z,21.21
2018-12-17T22:59:42.157Z,21.24
2018-12-17T23:02:09.723Z,21.22
2018-12-17T23:04:37.389Z,21.25
2018-12-17T23:07:04.942Z,21.23
2018-12-17T23:09:44.790Z,21.18
2018-12-17T23:12:24.136Z,21.20
2018-12-17T23:15:03.589Z,21.19
2018-12-17T23:17:41.136Z,21.20
2018-12-17T23:20:09.532Z,21.21
2018-12-17T23:22:38.048Z,21.24
2018-12-17T23:25:05.772Z,21.21
2018-12-17T23:27:33.641Z,21.21
2018-12-17T23:30:01.339Z,21.27
2018-12-17T23:32:32.759Z,21.22
2018-12-17T23:35:00.530Z,21.21
2018-12-17T23:37:28.199Z,21.17
2018-12-17T23:39:55.856Z,21.19
2018-12-17T23:42:23.378Z,21.19
2018-12-17T23:44:51.095Z,21.19
2018-12-17T23:47:18.753Z,21.19
2018-12-17T23:49:46.392Z,21.19
2018-12-17T23:52:14.037Z,21.17
2018-12-17T23:54:41.534Z,21.19
2018-12-17T23:57:09.332Z,21.18
2018-12-17T23:59:36.954Z,21.16
